sensor_id;sensor_type;location;lat;lon;timestamp;temperature;humidity
9544;DHT22;30418;51.45933468;7.33152330;2024-01-25T00:02:02;12.00;64.00
9544;DHT22;30418;51.45933468;7.33152330;2024-01-25T00:04:31;12.00;64.00
9544;DHT22;30418;51.45933468;7.33152330;2024-01-25T00:07:02;12.00;64.00
9544;DHT22;30418;51.45933468;7.33152330;2024-01-25T00:09:31;12.00;64.00
9544;DHT22;30418;51.45933468;7.33152330;2024-01-25T00:11:59;12.00;63.90
9544;DHT22;30418;51.45933468;7.33152330;2024-01-25T00:14:28;12.00;64.00
9544;DHT22;30418;51.45933468;7.33152330;2024-01-25T00:16:57;12.00;64.00
9544;DHT22;30418;51.45933468;7.33152330;2024-01-25T00:19:25;12.00;64.00
9544;DHT22;30418;51.45933468;7.33152330;2024-01-25T00:21:54;12.00;64.00
9544;DHT22;30418;51.45933468;7.33152330;2024-01-25T00:24:26;12.00;64.00
9544;DHT22;30418;51.45933468;7.33152330;2024-01-25T00:26:54;11.90;63.90
9544;DHT22;30418;51.45933468;7.33152330;2024-01-25T00:29:23;11.90;63.80
9544;DHT22;30418;51.45933468;7.33152330;2024-01-25T00:31:51;11.90;63.90
9544;DHT22;30418;51.45933468;7.33152330;2024-01-25T00:34:21;11.90;63.90
9544;DHT22;30418;51.45933468;7.33152330;2024-01-25T00:36:50;11.90;63.90
9544;DHT22;30418;51.45933468;7.33152330;2024-01-25T00:39:21;11.90;63.90
9544;DHT22;30418;51.45933468;7.33152330;2024-01-25T00:41:52;11.90;63.90
9544;DHT22;30418;51.45933468;7.33152330;2024-01-25T00:44:25;11.90;63.80
9544;DHT22;30418;51.45933468;7.33152330;2024-01-25T00:46:55;11.90;63.80
9544;DHT22;30418;51.45933468;7.33152330;2024-01-25T00:49:24;11.90;63.90
9544;DHT22;30418;51.45933468;7.33152330;2024-01-25T00:51:58;11.90;63.80
9544;DHT22;30418;51.45933468;7.33152330;2024-01-25T00:54:28;11.80;63.80
9544;DHT22;30418;51.45933468;7.33152330;2024-01-25T00:56:59;11.80;63.80
9544;DHT22;30418;51.45933468;7.33152330;2024-01-25T00:59:28;11.80;63.80
9544;DHT22;30418;51.45933468;7.33152330;2024-01-25T01:01:58;11.80;63.80
9544;DHT22;30418;51.45933468;7.33152330;2024-01-25T01:04:33;11.80;63.90
9544;DHT22;30418;51.45933468;7.33152330;2024-01-25T01:07:14;11.80;64.00
9544;DHT22;30418;51.45933468;7.33152330;2024-01-25T01:09:44;11.80;63.90
9544;DHT22;30418;51.45933468;7.33152330;2024-01-25T01:12:14;11.80;63.80
9544;DHT22;30418;51.45933468;7.33152330;2024-01-25T01:14:44;11.70;63.80
9544;DHT22;30418;51.45933468;7.33152330;2024-01-25T01:17:12;11.70;63.90
9544;DHT22;30418;51.45933468;7.33152330;2024-01-25T01:19:41;11.70;63.90
9544;DHT22;30418;51.45933468;7.33152330;2024-01-25T01:22:10;11.70;64.00
9544;DHT22;30418;51.45933468;7.33152330;2024-01-25T01:24:39;11.70;64.80
9544;DHT22;30418;51.45933468;7.33152330;2024-01-25T01:27:07;11.70;64.10
9544;DHT22;30418;51.45933468;7.33152330;2024-01-25T01:29:37;11.70;64.20
9544;DHT22;30418;51.45933468;7.33152330;2024-01-25T01:32:06;11.70;64.30
9544;DHT22;30418;51.45933468;7.33152330;2024-01-25T01:34:35;11.70;64.30
9544;DHT22;30418;51.45933468;7.33152330;2024-01-25T01:37:03;11.60;64.20
9544;DHT22;30418;51.45933468;7.33152330;2024-01-25T01:39:32;11.60;64.20
9544;DHT22;30418;51.45933468;7.33152330;2024-01-25T01:42:01;11.60;64.30
9544;DHT22;30418;51.45933468;7.33152330;2024-01-25T01:44:30;11.60;64.30
9544;DHT22;30418;51.45933468;7.33152330;2024-01-25T01:47:00;11.60;64.40
9544;DHT22;30418;51.45933468;7.33152330;2024-01-25T01:49:28;11.60;64.30
9544;DHT22;30418;51.45933468;7.33152330;2024-01-25T01:51:57;11.60;64.30
9544;DHT22;30418;51.45933468;7.33152330;2024-01-25T01:54:26;11.60;64.40
9544;DHT22;30418;51.45933468;7.33152330;2024-01-25T01:56:55;11.60;64.40
9544;DHT22;30418;51.45933468;7.33152330;2024-01-25T01:59:24;11.60;64.50
9544;DHT22;30418;51.45933468;7.33152330;2024-01-25T02:01:53;11.60;64.50
9544;DHT22;30418;51.45933468;7.33152330;2024-01-25T02:04:23;11.60;64.50
9544;DHT22;30418;51.45933468;7.33152330;2024-01-25T02:06:52;11.60;64.50
9544;DHT22;30418;51.45933468;7.33152330;2024-01-25T02:09:21;11.60;64.60
9544;DHT22;30418;51.45933468;7.33152330;2024-01-25T02:11:59;11.50;64.50
9544;DHT22;30418;51.45933468;7.33152330;2024-01-25T02:14:31;11.60;64.70
9544;DHT22;30418;51.45933468;7.33152330;2024-01-25T02:16:59;11.60;64.60
9544;DHT22;30418;51.45933468;7.33152330;2024-01-25T02:19:29;11.60;64.60
9544;DHT22;30418;51.45933468;7.33152330;2024-01-25T02:21:59;11.60;64.70
9544;DHT22;30418;51.45933468;7.33152330;2024-01-25T02:24:29;11.60;64.70
9544;DHT22;30418;51.45933468;7.33152330;2024-01-25T02:26:58;11.60;64.70
9544;DHT22;30418;51.45933468;7.33152330;2024-01-25T02:29:26;11.60;64.70
9544;DHT22;30418;51.45933468;7.33152330;2024-01-25T02:31:55;11.60;64.70
9544;DHT22;30418;51.45933468;7.33152330;2024-01-25T02:34:24;11.60;64.70
9544;DHT22;30418;51.45933468;7.33152330;2024-01-25T02:36:52;11.60;64.70
9544;DHT22;30418;51.45933468;7.33152330;2024-01-25T02:39:21;11.60;64.70
9544;DHT22;30418;51.45933468;7.33152330;2024-01-25T02:41:51;11.50;64.60
9544;DHT22;30418;51.45933468;7.33152330;2024-01-25T02:44:20;11.60;64.70
9544;DHT22;30418;51.45933468;7.33152330;2024-01-25T02:46:48;11.60;64.70
9544;DHT22;30418;51.45933468;7.33152330;2024-01-25T02:49:17;11.60;64.70
9544;DHT22;30418;51.45933468;7.33152330;2024-01-25T02:51:45;11.50;64.60
9544;DHT22;30418;51.45933468;7.33152330;2024-01-25T02:54:14;11.50;64.50
9544;DHT22;30418;51.45933468;7.33152330;2024-01-25T02:56:43;11.60;64.60
9544;DHT22;30418;51.45933468;7.33152330;2024-01-25T02:59:13;11.60;64.60
9544;DHT22;30418;51.45933468;7.33152330;2024-01-25T03:01:41;11.50;64.40
9544;DHT22;30418;51.45933468;7.33152330;2024-01-25T03:04:11;11.50;64.50
9544;DHT22;30418;51.45933468;7.33152330;2024-01-25T03:06:40;11.50;64.40
9544;DHT22;30418;51.45933468;7.33152330;2024-01-25T03:09:08;11.50;64.50
9544;DHT22;30418;51.45933468;7.33152330;2024-01-25T03:11:37;11.40;64.30
9544;DHT22;30418;51.45933468;7.33152330;2024-01-25T03:14:05;11.40;64.40
9544;DHT22;30418;51.45933468;7.33152330;2024-01-25T03:16:35;11.40;64.40
9544;DHT22;30418;51.45933468;7.33152330;2024-01-25T03:19:04;11.40;64.50
9544;DHT22;30418;51.45933468;7.33152330;2024-01-25T03:21:32;11.40;64.50
9544;DHT22;30418;51.45933468;7.33152330;2024-01-25T03:24:01;11.40;64.50
9544;DHT22;30418;51.45933468;7.33152330;2024-01-25T03:26:30;11.40;64.60
9544;DHT22;30418;51.45933468;7.33152330;2024-01-25T03:28:58;11.40;64.70
9544;DHT22;30418;51.45933468;7.33152330;2024-01-25T03:31:27;11.30;64.50
9544;DHT22;30418;51.45933468;7.33152330;2024-01-25T03:33:56;11.30;64.50
9544;DHT22;30418;51.45933468;7.33152330;2024-01-25T03:36:25;11.30;64.50
9544;DHT22;30418;51.45933468;7.33152330;2024-01-25T03:38:54;11.30;64.50
9544;DHT22;30418;51.45933468;7.33152330;2024-01-25T03:41:23;11.30;64.40
9544;DHT22;30418;51.45933468;7.33152330;2024-01-25T03:43:51;11.30;64.50
9544;DHT22;30418;51.45933468;7.33152330;2024-01-25T03:46:20;11.30;64.50
9544;DHT22;30418;51.45933468;7.33152330;2024-01-25T03:48:49;11.30;64.60
9544;DHT22;30418;51.45933468;7.33152330;2024-01-25T03:51:18;11.30;64.70
9544;DHT22;30418;51.45933468;7.33152330;2024-01-25T03:53:47;11.30;64.60
9544;DHT22;30418;51.45933468;7.33152330;2024-01-25T03:56:16;11.20;64.40
9544;DHT22;30418;51.45933468;7.33152330;2024-01-25T03:58:45;11.20;64.30
9544;DHT22;30418;51.45933468;7.33152330;2024-01-25T04:01:14;11.20;64.40
9544;DHT22;30418;51.45933468;7.33152330;2024-01-25T04:03:43;11.20;64.40
9544;DHT22;30418;51.45933468;7.33152330;2024-01-25T04:06:11;11.20;64.40
9544;DHT22;30418;51.45933468;7.33152330;2024-01-25T04:08:42;11.10;64.40
9544;DHT22;30418;51.45933468;7.33152330;2024-01-25T04:11:10;11.10;64.30
9544;DHT22;30418;51.45933468;7.33152330;2024-01-25T04:13:40;11.20;64.40
9544;DHT22;30418;51.45933468;7.33152330;2024-01-25T04:16:14;11.10;64.30
9544;DHT22;30418;51.45933468;7.33152330;2024-01-25T04:18:42;11.10;64.30
9544;DHT22;30418;51.45933468;7.33152330;2024-01-25T04:21:11;11.10;64.30
9544;DHT22;30418;51.45933468;7.33152330;2024-01-25T04:23:41;11.10;64.30
9544;DHT22;30418;51.45933468;7.33152330;2024-01-25T04:26:10;11.10;64.30
9544;DHT22;30418;51.45933468;7.33152330;2024-01-25T04:28:39;11.00;64.30
9544;DHT22;30418;51.45933468;7.33152330;2024-01-25T04:31:07;11.00;64.30
9544;DHT22;30418;51.45933468;7.33152330;2024-01-25T04:33:38;11.00;64.30
9544;DHT22;30418;51.45933468;7.33152330;2024-01-25T04:36:11;11.00;64.20
9544;DHT22;30418;51.45933468;7.33152330;2024-01-25T04:38:41;11.00;64.20
9544;DHT22;30418;51.45933468;7.33152330;2024-01-25T04:41:10;11.00;64.30
9544;DHT22;30418;51.45933468;7.33152330;2024-01-25T04:43:38;11.00;64.30
9544;DHT22;30418;51.45933468;7.33152330;2024-01-25T04:46:07;11.00;64.30
9544;DHT22;30418;51.45933468;7.33152330;2024-01-25T04:48:37;11.00;64.30
9544;DHT22;30418;51.45933468;7.33152330;2024-01-25T04:51:07;10.90;64.20
9544;DHT22;30418;51.45933468;7.33152330;2024-01-25T04:53:35;10.90;64.20
9544;DHT22;30418;51.45933468;7.33152330;2024-01-25T04:56:06;10.90;64.20
9544;DHT22;30418;51.45933468;7.33152330;2024-01-25T04:58:34;10.90;64.20
9544;DHT22;30418;51.45933468;7.33152330;2024-01-25T05:01:03;10.90;64.20
9544;DHT22;30418;51.45933468;7.33152330;2024-01-25T05:03:34;10.90;64.20
9544;DHT22;30418;51.45933468;7.33152330;2024-01-25T05:06:03;10.90;64.20
9544;DHT22;30418;51.45933468;7.33152330;2024-01-25T05:08:33;10.80;64.20
9544;DHT22;30418;51.45933468;7.33152330;2024-01-25T05:11:01;10.80;64.20
9544;DHT22;30418;51.45933468;7.33152330;2024-01-25T05:13:33;10.80;64.20
9544;DHT22;30418;51.45933468;7.33152330;2024-01-25T05:16:02;10.80;64.30
9544;DHT22;30418;51.45933468;7.33152330;2024-01-25T05:18:31;10.80;64.20
9544;DHT22;30418;51.45933468;7.33152330;2024-01-25T05:21:01;10.70;64.10
9544;DHT22;30418;51.45933468;7.33152330;2024-01-25T05:23:29;10.70;64.10
9544;DHT22;30418;51.45933468;7.33152330;2024-01-25T05:25:58;10.70;64.10
9544;DHT22;30418;51.45933468;7.33152330;2024-01-25T05:28:27;10.70;64.10
9544;DHT22;30418;51.45933468;7.33152330;2024-01-25T05:30:56;10.60;64.10
9544;DHT22;30418;51.45933468;7.33152330;2024-01-25T05:33:28;10.70;64.30
9544;DHT22;30418;51.45933468;7.33152330;2024-01-25T05:35:57;10.70;64.30
9544;DHT22;30418;51.45933468;7.33152330;2024-01-25T05:38:26;10.60;64.20
9544;DHT22;30418;51.45933468;7.33152330;2024-01-25T05:40:55;10.60;64.20
9544;DHT22;30418;51.45933468;7.33152330;2024-01-25T05:43:23;10.60;64.20
9544;DHT22;30418;51.45933468;7.33152330;2024-01-25T05:45:52;10.60;64.30
9544;DHT22;30418;51.45933468;7.33152330;2024-01-25T05:48:22;10.60;64.30
9544;DHT22;30418;51.45933468;7.33152330;2024-01-25T05:50:50;10.50;64.20
9544;DHT22;30418;51.45933468;7.33152330;2024-01-25T05:53:19;10.50;64.30
9544;DHT22;30418;51.45933468;7.33152330;2024-01-25T05:55:49;10.50;64.40
9544;DHT22;30418;51.45933468;7.33152330;2024-01-25T05:58:18;10.50;64.40
9544;DHT22;30418;51.45933468;7.33152330;2024-01-25T06:00:46;10.50;64.40
9544;DHT22;30418;51.45933468;7.33152330;2024-01-25T06:03:15;10.50;64.40
9544;DHT22;30418;51.45933468;7.33152330;2024-01-25T06:05:45;10.40;64.30
9544;DHT22;30418;51.45933468;7.33152330;2024-01-25T06:08:13;10.50;64.50
9544;DHT22;30418;51.45933468;7.33152330;2024-01-25T06:10:42;10.40;64.40
9544;DHT22;30418;51.45933468;7.33152330;2024-01-25T06:13:11;10.40;64.40
9544;DHT22;30418;51.45933468;7.33152330;2024-01-25T06:15:39;10.40;64.40
9544;DHT22;30418;51.45933468;7.33152330;2024-01-25T06:18:08;10.40;64.30
9544;DHT22;30418;51.45933468;7.33152330;2024-01-25T06:20:36;10.40;64.30
9544;DHT22;30418;51.45933468;7.33152330;2024-01-25T06:23:07;10.40;64.30
9544;DHT22;30418;51.45933468;7.33152330;2024-01-25T06:25:35;10.40;64.30
9544;DHT22;30418;51.45933468;7.33152330;2024-01-25T06:28:04;10.30;64.20
9544;DHT22;30418;51.45933468;7.33152330;2024-01-25T06:30:33;10.40;64.30
9544;DHT22;30418;51.45933468;7.33152330;2024-01-25T06:33:02;10.30;64.20
9544;DHT22;30418;51.45933468;7.33152330;2024-01-25T06:35:31;10.30;64.20
9544;DHT22;30418;51.45933468;7.33152330;2024-01-25T06:38:00;10.30;64.20
9544;DHT22;30418;51.45933468;7.33152330;2024-01-25T06:40:30;10.30;64.20
9544;DHT22;30418;51.45933468;7.33152330;2024-01-25T06:42:58;10.30;64.20
9544;DHT22;30418;51.45933468;7.33152330;2024-01-25T06:45:27;10.30;64.20
9544;DHT22;30418;51.45933468;7.33152330;2024-01-25T06:47:55;10.20;64.10
9544;DHT22;30418;51.45933468;7.33152330;2024-01-25T06:50:24;10.20;64.10
9544;DHT22;30418;51.45933468;7.33152330;2024-01-25T06:52:53;10.20;64.10
9544;DHT22;30418;51.45933468;7.33152330;2024-01-25T06:55:22;10.20;64.10
9544;DHT22;30418;51.45933468;7.33152330;2024-01-25T06:57:52;10.20;64.20
9544;DHT22;30418;51.45933468;7.33152330;2024-01-25T07:00:21;10.20;64.20
9544;DHT22;30418;51.45933468;7.33152330;2024-01-25T07:02:50;10.20;64.30
9544;DHT22;30418;51.45933468;7.33152330;2024-01-25T07:05:19;10.10;64.20
9544;DHT22;30418;51.45933468;7.33152330;2024-01-25T07:07:48;10.10;64.20
9544;DHT22;30418;51.45933468;7.33152330;2024-01-25T07:10:17;10.10;64.60
9544;DHT22;30418;51.45933468;7.33152330;2024-01-25T07:12:46;10.10;64.30
9544;DHT22;30418;51.45933468;7.33152330;2024-01-25T07:15:16;10.10;64.30
9544;DHT22;30418;51.45933468;7.33152330;2024-01-25T07:17:46;10.00;64.30
9544;DHT22;30418;51.45933468;7.33152330;2024-01-25T07:20:15;10.00;64.30
9544;DHT22;30418;51.45933468;7.33152330;2024-01-25T07:22:46;10.00;64.30
9544;DHT22;30418;51.45933468;7.33152330;2024-01-25T07:25:15;10.10;64.40
9544;DHT22;30418;51.45933468;7.33152330;2024-01-25T07:27:44;10.00;64.40
9544;DHT22;30418;51.45933468;7.33152330;2024-01-25T07:30:15;10.00;64.40
9544;DHT22;30418;51.45933468;7.33152330;2024-01-25T07:32:44;10.00;64.40
9544;DHT22;30418;51.45933468;7.33152330;2024-01-25T07:35:13;10.00;64.50
9544;DHT22;30418;51.45933468;7.33152330;2024-01-25T07:37:42;10.00;64.40
9544;DHT22;30418;51.45933468;7.33152330;2024-01-25T07:40:12;10.00;64.50
9544;DHT22;30418;51.45933468;7.33152330;2024-01-25T07:42:40;10.00;64.70
9544;DHT22;30418;51.45933468;7.33152330;2024-01-25T07:45:09;10.00;64.70
9544;DHT22;30418;51.45933468;7.33152330;2024-01-25T07:47:42;10.00;64.70
9544;DHT22;30418;51.45933468;7.33152330;2024-01-25T07:50:11;10.00;64.70
9544;DHT22;30418;51.45933468;7.33152330;2024-01-25T07:52:39;10.00;64.70
9544;DHT22;30418;51.45933468;7.33152330;2024-01-25T07:55:08;10.00;64.70
9544;DHT22;30418;51.45933468;7.33152330;2024-01-25T07:57:36;10.00;64.80
9544;DHT22;30418;51.45933468;7.33152330;2024-01-25T08:00:07;9.90;65.90
9544;DHT22;30418;51.45933468;7.33152330;2024-01-25T08:02:36;10.00;64.90
9544;DHT22;30418;51.45933468;7.33152330;2024-01-25T08:05:08;10.00;64.90
9544;DHT22;30418;51.45933468;7.33152330;2024-01-25T08:07:37;10.00;64.90
9544;DHT22;30418;51.45933468;7.33152330;2024-01-25T08:10:07;10.00;64.90
9544;DHT22;30418;51.45933468;7.33152330;2024-01-25T08:12:36;10.00;64.90
9544;DHT22;30418;51.45933468;7.33152330;2024-01-25T08:15:14;10.00;64.90
9544;DHT22;30418;51.45933468;7.33152330;2024-01-25T08:17:43;10.00;65.00
9544;DHT22;30418;51.45933468;7.33152330;2024-01-25T08:20:13;10.00;65.00
9544;DHT22;30418;51.45933468;7.33152330;2024-01-25T08:22:42;10.00;65.00
9544;DHT22;30418;51.45933468;7.33152330;2024-01-25T08:25:11;10.00;65.00
9544;DHT22;30418;51.45933468;7.33152330;2024-01-25T08:27:40;10.00;65.10
9544;DHT22;30418;51.45933468;7.33152330;2024-01-25T08:30:09;10.10;65.20
9544;DHT22;30418;51.45933468;7.33152330;2024-01-25T08:32:39;10.00;65.10
9544;DHT22;30418;51.45933468;7.33152330;2024-01-25T08:35:08;10.00;65.20
9544;DHT22;30418;51.45933468;7.33152330;2024-01-25T08:37:39;10.10;65.40
9544;DHT22;30418;51.45933468;7.33152330;2024-01-25T08:40:08;10.10;65.50
9544;DHT22;30418;51.45933468;7.33152330;2024-01-25T08:42:38;10.10;65.40
9544;DHT22;30418;51.45933468;7.33152330;2024-01-25T08:45:07;10.10;65.40
9544;DHT22;30418;51.45933468;7.33152330;2024-01-25T08:47:37;10.10;65.40
9544;DHT22;30418;51.45933468;7.33152330;2024-01-25T08:50:07;10.10;65.40
9544;DHT22;30418;51.45933468;7.33152330;2024-01-25T08:52:39;10.10;65.50
9544;DHT22;30418;51.45933468;7.33152330;2024-01-25T08:55:09;10.10;65.50
9544;DHT22;30418;51.45933468;7.33152330;2024-01-25T08:57:38;10.10;65.50
9544;DHT22;30418;51.45933468;7.33152330;2024-01-25T09:00:09;10.10;65.50
9544;DHT22;30418;51.45933468;7.33152330;2024-01-25T09:02:39;10.20;65.60
9544;DHT22;30418;51.45933468;7.33152330;2024-01-25T09:05:08;10.20;65.70
9544;DHT22;30418;51.45933468;7.33152330;2024-01-25T09:07:37;10.20;65.80
9544;DHT22;30418;51.45933468;7.33152330;2024-01-25T09:10:08;10.20;65.70
9544;DHT22;30418;51.45933468;7.33152330;2024-01-25T09:12:38;10.20;65.80
9544;DHT22;30418;51.45933468;7.33152330;2024-01-25T09:15:07;10.20;65.80
9544;DHT22;30418;51.45933468;7.33152330;2024-01-25T09:17:37;10.20;65.90
9544;DHT22;30418;51.45933468;7.33152330;2024-01-25T09:20:07;10.20;65.90
9544;DHT22;30418;51.45933468;7.33152330;2024-01-25T09:22:38;10.20;65.90
9544;DHT22;30418;51.45933468;7.33152330;2024-01-25T09:25:09;10.20;65.90
9544;DHT22;30418;51.45933468;7.33152330;2024-01-25T09:27:38;10.20;66.10
9544;DHT22;30418;51.45933468;7.33152330;2024-01-25T09:30:07;10.20;66.10
9544;DHT22;30418;51.45933468;7.33152330;2024-01-25T09:32:37;10.20;66.20
9544;DHT22;30418;51.45933468;7.33152330;2024-01-25T09:35:06;10.30;66.30
9544;DHT22;30418;51.45933468;7.33152330;2024-01-25T09:37:36;10.30;66.30
9544;DHT22;30418;51.45933468;7.33152330;2024-01-25T09:40:09;10.30;66.30
9544;DHT22;30418;51.45933468;7.33152330;2024-01-25T09:42:38;10.30;66.30
9544;DHT22;30418;51.45933468;7.33152330;2024-01-25T09:45:08;10.30;66.30
9544;DHT22;30418;51.45933468;7.33152330;2024-01-25T09:47:39;10.40;66.40
9544;DHT22;30418;51.45933468;7.33152330;2024-01-25T09:50:08;10.40;66.40
9544;DHT22;30418;51.45933468;7.33152330;2024-01-25T09:52:38;10.40;66.40
9544;DHT22;30418;51.45933468;7.33152330;2024-01-25T09:55:09;10.40;66.40
9544;DHT22;30418;51.45933468;7.33152330;2024-01-25T09:57:43;10.40;66.40
9544;DHT22;30418;51.45933468;7.33152330;2024-01-25T10:00:15;10.40;66.40
9544;DHT22;30418;51.45933468;7.33152330;2024-01-25T10:02:45;10.40;66.40
9544;DHT22;30418;51.45933468;7.33152330;2024-01-25T10:05:16;10.40;66.50
9544;DHT22;30418;51.45933468;7.33152330;2024-01-25T10:07:46;10.50;66.50
9544;DHT22;30418;51.45933468;7.33152330;2024-01-25T10:10:16;10.50;66.50
9544;DHT22;30418;51.45933468;7.33152330;2024-01-25T10:12:45;10.50;66.50
9544;DHT22;30418;51.45933468;7.33152330;2024-01-25T10:15:13;10.50;66.60
9544;DHT22;30418;51.45933468;7.33152330;2024-01-25T10:17:42;10.50;66.60
9544;DHT22;30418;51.45933468;7.33152330;2024-01-25T10:20:32;10.50;66.60
9544;DHT22;30418;51.45933468;7.33152330;2024-01-25T10:23:02;10.50;66.60
9544;DHT22;30418;51.45933468;7.33152330;2024-01-25T10:25:34;10.50;66.60
9544;DHT22;30418;51.45933468;7.33152330;2024-01-25T10:28:05;10.60;66.70
9544;DHT22;30418;51.45933468;7.33152330;2024-01-25T10:30:35;10.60;66.70
9544;DHT22;30418;51.45933468;7.33152330;2024-01-25T10:33:04;10.60;66.80
9544;DHT22;30418;51.45933468;7.33152330;2024-01-25T10:35:34;10.60;66.70
9544;DHT22;30418;51.45933468;7.33152330;2024-01-25T10:38:04;10.70;66.80
9544;DHT22;30418;51.45933468;7.33152330;2024-01-25T10:40:36;10.70;66.80
9544;DHT22;30418;51.45933468;7.33152330;2024-01-25T10:43:05;10.70;66.70
9544;DHT22;30418;51.45933468;7.33152330;2024-01-25T10:45:34;10.70;66.70
9544;DHT22;30418;51.45933468;7.33152330;2024-01-25T10:48:03;10.70;66.70
9544;DHT22;30418;51.45933468;7.33152330;2024-01-25T10:50:33;10.70;66.70
9544;DHT22;30418;51.45933468;7.33152330;2024-01-25T10:53:02;10.70;66.70
9544;DHT22;30418;51.45933468;7.33152330;2024-01-25T10:55:32;10.70;66.70
9544;DHT22;30418;51.45933468;7.33152330;2024-01-25T10:58:02;10.70;66.70
9544;DHT22;30418;51.45933468;7.33152330;2024-01-25T11:00:31;10.70;66.70
9544;DHT22;30418;51.45933468;7.33152330;2024-01-25T11:03:01;10.70;66.70
9544;DHT22;30418;51.45933468;7.33152330;2024-01-25T11:05:30;10.80;66.80
9544;DHT22;30418;51.45933468;7.33152330;2024-01-25T11:08:00;10.80;66.80
9544;DHT22;30418;51.45933468;7.33152330;2024-01-25T11:10:35;10.80;66.80
9544;DHT22;30418;51.45933468;7.33152330;2024-01-25T11:13:14;10.80;66.90
9544;DHT22;30418;51.45933468;7.33152330;2024-01-25T11:15:42;10.80;66.90
9544;DHT22;30418;51.45933468;7.33152330;2024-01-25T11:18:12;10.90;67.00
9544;DHT22;30418;51.45933468;7.33152330;2024-01-25T11:20:41;10.90;67.20
9544;DHT22;30418;51.45933468;7.33152330;2024-01-25T11:23:09;10.90;67.10
9544;DHT22;30418;51.45933468;7.33152330;2024-01-25T11:25:38;10.90;67.10
9544;DHT22;30418;51.45933468;7.33152330;2024-01-25T11:28:08;11.00;67.20
9544;DHT22;30418;51.45933468;7.33152330;2024-01-25T11:30:37;11.00;67.10
9544;DHT22;30418;51.45933468;7.33152330;2024-01-25T11:33:06;11.10;67.10
9544;DHT22;30418;51.45933468;7.33152330;2024-01-25T11:35:36;11.10;67.10
9544;DHT22;30418;51.45933468;7.33152330;2024-01-25T11:38:05;11.10;67.00
9544;DHT22;30418;51.45933468;7.33152330;2024-01-25T11:40:34;11.20;67.00
9544;DHT22;30418;51.45933468;7.33152330;2024-01-25T11:43:05;11.10;66.70
9544;DHT22;30418;51.45933468;7.33152330;2024-01-25T11:45:40;11.10;66.60
9544;DHT22;30418;51.45933468;7.33152330;2024-01-25T11:48:11;11.20;66.70
9544;DHT22;30418;51.45933468;7.33152330;2024-01-25T11:50:40;11.20;66.60
9544;DHT22;30418;51.45933468;7.33152330;2024-01-25T11:53:08;11.20;66.60
9544;DHT22;30418;51.45933468;7.33152330;2024-01-25T11:55:37;11.20;66.60
9544;DHT22;30418;51.45933468;7.33152330;2024-01-25T11:58:06;11.20;66.50
9544;DHT22;30418;51.45933468;7.33152330;2024-01-25T12:00:34;11.20;66.50
9544;DHT22;30418;51.45933468;7.33152330;2024-01-25T12:03:05;11.20;66.50
9544;DHT22;30418;51.45933468;7.33152330;2024-01-25T12:05:34;11.20;66.50
9544;DHT22;30418;51.45933468;7.33152330;2024-01-25T12:08:08;11.20;66.40
9544;DHT22;30418;51.45933468;7.33152330;2024-01-25T12:10:37;11.20;66.40
9544;DHT22;30418;51.45933468;7.33152330;2024-01-25T12:13:07;11.30;66.40
9544;DHT22;30418;51.45933468;7.33152330;2024-01-25T12:15:36;11.30;66.40
9544;DHT22;30418;51.45933468;7.33152330;2024-01-25T12:18:07;11.30;66.30
9544;DHT22;30418;51.45933468;7.33152330;2024-01-25T12:20:36;11.30;66.30
9544;DHT22;30418;51.45933468;7.33152330;2024-01-25T12:23:06;11.30;66.30
9544;DHT22;30418;51.45933468;7.33152330;2024-01-25T12:25:39;11.30;66.30
9544;DHT22;30418;51.45933468;7.33152330;2024-01-25T12:28:09;11.40;66.40
9544;DHT22;30418;51.45933468;7.33152330;2024-01-25T12:30:38;11.40;66.30
9544;DHT22;30418;51.45933468;7.33152330;2024-01-25T12:33:08;11.40;66.20
9544;DHT22;30418;51.45933468;7.33152330;2024-01-25T12:35:38;11.40;66.10
9544;DHT22;30418;51.45933468;7.33152330;2024-01-25T12:38:08;11.40;66.10
9544;DHT22;30418;51.45933468;7.33152330;2024-01-25T12:40:36;11.50;66.10
9544;DHT22;30418;51.45933468;7.33152330;2024-01-25T12:43:05;11.40;65.80
9544;DHT22;30418;51.45933468;7.33152330;2024-01-25T12:45:34;11.50;66.70
9544;DHT22;30418;51.45933468;7.33152330;2024-01-25T12:48:03;11.50;65.80
9544;DHT22;30418;51.45933468;7.33152330;2024-01-25T12:50:36;11.50;65.80
9544;DHT22;30418;51.45933468;7.33152330;2024-01-25T12:53:05;11.50;65.70
9544;DHT22;30418;51.45933468;7.33152330;2024-01-25T12:55:35;11.50;65.60
9544;DHT22;30418;51.45933468;7.33152330;2024-01-25T12:58:03;11.50;65.50
9544;DHT22;30418;51.45933468;7.33152330;2024-01-25T13:00:32;11.50;65.40
9544;DHT22;30418;51.45933468;7.33152330;2024-01-25T13:03:01;11.50;65.40
9544;DHT22;30418;51.45933468;7.33152330;2024-01-25T13:05:30;11.50;65.30
9544;DHT22;30418;51.45933468;7.33152330;2024-01-25T13:08:03;11.50;66.30
9544;DHT22;30418;51.45933468;7.33152330;2024-01-25T13:10:32;11.50;65.30
9544;DHT22;30418;51.45933468;7.33152330;2024-01-25T13:13:01;11.50;65.30
9544;DHT22;30418;51.45933468;7.33152330;2024-01-25T13:15:29;11.50;65.30
9544;DHT22;30418;51.45933468;7.33152330;2024-01-25T13:17:59;11.50;65.30
9544;DHT22;30418;51.45933468;7.33152330;2024-01-25T13:20:28;11.50;65.20
9544;DHT22;30418;51.45933468;7.33152330;2024-01-25T13:22:57;11.50;65.20
9544;DHT22;30418;51.45933468;7.33152330;2024-01-25T13:25:27;11.50;65.20
9544;DHT22;30418;51.45933468;7.33152330;2024-01-25T13:27:55;11.50;65.30
9544;DHT22;30418;51.45933468;7.33152330;2024-01-25T13:30:24;11.50;65.30
9544;DHT22;30418;51.45933468;7.33152330;2024-01-25T13:32:53;11.50;65.30
9544;DHT22;30418;51.45933468;7.33152330;2024-01-25T13:35:22;11.50;65.30
9544;DHT22;30418;51.45933468;7.33152330;2024-01-25T13:37:51;11.50;65.20
9544;DHT22;30418;51.45933468;7.33152330;2024-01-25T13:40:19;11.50;65.20
9544;DHT22;30418;51.45933468;7.33152330;2024-01-25T13:42:49;11.50;65.20
9544;DHT22;30418;51.45933468;7.33152330;2024-01-25T13:45:17;11.50;65.20
9544;DHT22;30418;51.45933468;7.33152330;2024-01-25T13:47:46;11.50;65.20